Tropical Cyclones
[Index]
Season 2020-2021 Tropical Cyclone 202021_12 Track Map
Season 2020-2021 Summaries: [BoM-AU]
<<- Previous TC | BoM 2020-2021 Season | Next TC ->>

click for intensity scale information  Lat/long Grid: Show Hide

 Date Labels: Show Hide

Bureau of Meteorology Tropical Cyclone Data

Name: 202021_12

27 Jan 2021 03:00 UTC to 08 Feb 2021 00:00 UTC

    date/time    lat    long    hPa   cat  kts
2021-01-27 03   14.4   129.1   1001         15          
2021-01-27 06   14.7   129.0    998         15          
2021-01-27 12   15.3   127.5   1000         15          
2021-01-27 18   15.5   127.3   1000         15          
2021-01-28 00   15.7   127.1   1000         15          
2021-01-28 06   15.6   126.3   1000         15          
2021-01-28 12   15.7   126.2    999         15          
2021-01-28 18   15.9   126.1    998         15          
2021-01-29 00   16.2   126.0    999         15          
2021-01-29 06   16.4   125.7    997         20          
2021-01-29 12   16.8   125.5    997         20          
2021-01-29 18   17.2   125.4    997         20          
2021-01-30 00   17.4   125.1    996         20          
2021-01-30 06   17.9   124.7    993    1    20          
2021-01-30 12   18.4   124.0    993    1    20          
2021-01-30 18   18.9   123.4    993    1    20          
2021-01-31 00   19.6   123.1    994    1    20          
2021-01-31 06   20.5   122.4    994    1    20          
2021-01-31 12   20.6   121.6    994    1    25          
2021-01-31 18   20.7   120.4    994    1    25          
2021-02-01 00   20.6   119.4    993    1    30          
2021-02-01 06   20.5   119.0    992    1    30          
2021-02-01 12   21.1   118.2    992    1    30          
2021-02-01 18   21.5   117.1    992    1    25          
2021-02-02 00   22.0   116.1    992    1    25          
2021-02-02 06   22.8   115.8    992    1    25          
2021-02-02 12   23.8   115.1    994    1    25          
2021-02-02 18   24.0   114.4    995    1    25          
2021-02-03 00   23.7   114.4    994    1    25          
2021-02-03 06   23.9   114.4    993    1    25          
2021-02-03 12   23.8   114.4    992    1    25          
2021-02-03 18   23.8   114.5    992    1    25          
2021-02-04 00   24.2   114.3    993    1    25          
2021-02-04 06   24.4   113.6    993    1    30          
2021-02-04 12   24.6   113.4    991    1    30          
2021-02-04 18   24.8   113.1    991    1    30          
2021-02-05 00   25.1   112.4    991    1    30          
2021-02-05 06   24.9   111.9    990    1    30          
2021-02-05 12   24.9   112.5    992    1    30          
2021-02-05 18   25.4   112.9    990    1    35          
2021-02-06 00   26.3   113.1    990    1    35          
2021-02-06 06   27.3   113.3    991    1    35          
2021-02-06 12   28.1   113.8    991    1    30          
2021-02-06 18   29.3   114.2    991    1    30          
2021-02-07 00   30.5   114.6    991    1    30          
2021-02-07 06   31.3   115.1    992    1    30          
2021-02-07 12   32.6   115.8    993    1    30          
2021-02-07 18   34.0   115.9    993    1    30          
2021-02-08 00   35.5   116.2    993    1    30          
Winds are 10-min average.

Tropical cyclone tracks developed by Michael Bath using data from the Bureau of Meteorology and Google Maps.


Document: tropical_cyclone_202021_12.htm
Updated: 20 April 2021
[Australian Severe Weather index] [Copyright Notice] [Email Contacts] [Search This Site] [Privacy Policy]


Main Index Home Page Stock Weather Photos Extreme Storms Discussion Storm News and Storm Chasing Reports Tropical Cyclones / Hurricanes / Typhoons Weather Data and Links Wild Fires / Bushfires Weather Observation Techniques Weather Picture Catalogue Tornado Pictures and Reports Stock Video Footage and DVDs for sale